Stoke-sub-Hamdon, United Kingdom
Current Conditions -  °F | °C
As of 8:50 AM on Friday 19 Dec 2014 (Local Time) from EGDY Reporting Station
Broken Clouds Broken Clouds  
Wind Chill: 41°   Ceiling: 3000
Heat Index: 48°   Visibility: 6mi
Dew Point: 39°   Wind: 20mph
Humidity: 71%   Direction: 310°NW
Pressure: 29.97"   Gusts: NA
Location:  50.94°N, 2.76°W
Report Text: EGDY 190850Z 31017KT 9999 FEW010 BKN030 09/04 Q1015 BLU NOSIG
Loading
Personal Weather Stations






























Interactive Weather Map New forecast layout! Learn more

10-Day Weather Forecast

Advertisements
Track Severe Weather on mobile